| time (UTC) | temp F | wind direction | speed MPH | gust MPH | rain 1hr in | rain 24hr in | rain mn in | humidity % | barometer mb |
| 20260504110556 | 47 | 209 | 4.0 | 10.0 | 0.00 | 0.01 | 0.01 | 78 | 1005.7 |
| 20260504100549 | 45 | 173 | 3.0 | 13.0 | 0.01 | 0.01 | 0.01 | 82 | 1006.0 |
| 20260504081536 | 46 | 147 | 2.0 | 8.0 | 0.00 | 0.00 | 0.00 | 68 | 1006.5 |
| 20260504081035 | 46 | 216 | 2.0 | 8.0 | 0.00 | 0.00 | 0.00 | 67 | 1006.6 |
| 20260504080534 | 46 | 219 | 2.0 | 8.0 | 0.00 | 0.00 | 0.00 | 67 | 1006.7 |
| 20260504050517 | 44 | 229 | 0.0 | 4.0 | 0.00 | 0.00 | 0.00 | 52 | 1007.0 |
| 20260504050016 | 44 | 220 | 1.0 | 4.0 | 0.00 | 0.00 | 0.00 | 52 | 1007.1 |
| 20260504045515 | 44 | 202 | 1.0 | 5.0 | 0.00 | 0.00 | 0.00 | 52 | 1007.0 |
| 20260504045015 | 44 | 128 | 1.0 | 5.0 | 0.00 | 0.00 | 0.00 | 52 | 1007.1 |
| 20260504044516 | 44 | 211 | 0.0 | 2.0 | 0.00 | 0.00 | 0.00 | 52 | 1007.2 |
| 20260504044016 | 44 | 212 | 1.0 | 2.0 | 0.00 | 0.00 | 0.00 | 52 | 1007.3 |
| 20260504043514 | 44 | 212 | 0.0 | 3.0 | 0.00 | 0.00 | 0.00 | 53 | 1007.3 |
| 20260504043014 | 44 | 217 | 1.0 | 4.0 | 0.00 | 0.00 | 0.00 | 53 | 1007.3 |
| 20260504042514 | 44 | 230 | 1.0 | 4.0 | 0.00 | 0.00 | 0.00 | 53 | 1007.3 |
| 20260504042012 | 44 | 227 | 0.0 | 5.0 | 0.00 | 0.00 | 0.00 | 53 | 1007.4 |
| 20260504041514 | 44 | 227 | 1.0 | 5.0 | 0.00 | 0.00 | 0.00 | 52 | 1007.4 |
| 20260504041011 | 44 | 198 | 1.0 | 3.0 | 0.00 | 0.00 | 0.00 | 53 | 1007.3 |
| 20260504040510 | 44 | 239 | 1.0 | 3.0 | 0.00 | 0.00 | 0.00 | 53 | 1007.4 |
| 20260504040009 | 44 | 239 | 1.0 | 3.0 | 0.00 | 0.00 | 0.00 | 53 | 1007.3 |
| 20260504035511 | 44 | 239 | 1.0 | 5.0 | 0.00 | 0.00 | 0.00 | 52 | 1007.4 |
| 20260504035013 | 44 | 131 | 1.0 | 5.0 | 0.00 | 0.00 | 0.00 | 53 | 1007.3 |
| 20260504034509 | 43 | 173 | 1.0 | 5.0 | 0.00 | 0.00 | 0.00 | 54 | 1007.3 |
| 20260504034014 | 43 | 164 | 1.0 | 5.0 | 0.00 | 0.00 | 0.00 | 54 | 1007.3 |
| 20260504033509 | 43 | 134 | 1.0 | 4.0 | 0.00 | 0.00 | 0.00 | 53 | 1007.3 |
| 20260504033009 | 43 | 211 | 0.0 | 4.0 | 0.00 | 0.00 | 0.00 | 53 | 1007.3 |
| 20260504032510 | 43 | 219 | 1.0 | 4.0 | 0.00 | 0.00 | 0.00 | 53 | 1007.3 |
| 20260504032009 | 43 | 162 | 1.0 | 4.0 | 0.00 | 0.00 | 0.00 | 53 | 1007.3 |
| 20260504031509 | 43 | 130 | 1.0 | 5.0 | 0.00 | 0.00 | 0.00 | 54 | 1007.4 |
| 20260504031012 | 43 | 165 | 1.0 | 4.0 | 0.00 | 0.00 | 0.00 | 54 | 1007.3 |
| 20260504030507 | 43 | 131 | 1.0 | 4.0 | 0.00 | 0.00 | 0.00 | 54 | 1007.3 |
| 20260504030007 | 43 | 131 | 1.0 | 4.0 | 0.00 | 0.00 | 0.00 | 55 | 1007.3 |
| 20260504025508 | 43 | 131 | 2.0 | 4.0 | 0.00 | 0.01 | 0.00 | 56 | 1007.4 |
| 20260504025008 | 43 | 125 | 1.0 | 4.0 | 0.00 | 0.01 | 0.00 | 56 | 1007.5 |
| 20260504024507 | 43 | 154 | 0.0 | 3.0 | 0.00 | 0.01 | 0.00 | 56 | 1007.5 |
| 20260504024007 | 43 | 154 | 0.0 | 3.0 | 0.00 | 0.01 | 0.00 | 56 | 1007.5 |
| 20260504023507 | 43 | 154 | 0.0 | 4.0 | 0.00 | 0.01 | 0.00 | 56 | 1007.6 |
| 20260504023007 | 43 | 154 | 1.0 | 4.0 | 0.00 | 0.01 | 0.00 | 56 | 1007.6 |
| 20260504022511 | 43 | 158 | 0.0 | 2.0 | 0.00 | 0.01 | 0.00 | 57 | 1007.7 |
| 20260504022006 | 43 | 158 | 0.0 | 2.0 | 0.00 | 0.01 | 0.00 | 57 | 1007.7 |
| 20260504021507 | 43 | 158 | 0.0 | 2.0 | 0.00 | 0.01 | 0.00 | 57 | 1007.7 |
| 20260504021009 | 43 | 158 | 0.0 | 2.0 | 0.00 | 0.01 | 0.00 | 57 | 1007.7 |
| 20260504020505 | 43 | 158 | 0.0 | 1.0 | 0.00 | 0.01 | 0.00 | 57 | 1007.7 |
| 20260504020005 | 43 | 158 | 0.0 | 1.0 | 0.00 | 0.01 | 0.00 | 57 | 1007.7 |
| 20260504015508 | 43 | 158 | 0.0 | 2.0 | 0.00 | 0.03 | 0.00 | 57 | 1007.7 |
| 20260504015012 | 44 | 158 | 0.0 | 2.0 | 0.00 | 0.03 | 0.00 | 57 | 1007.8 |
| 20260504014507 | 44 | 157 | 0.0 | 2.0 | 0.00 | 0.03 | 0.00 | 56 | 1007.8 |
| 20260504014006 | 44 | 157 | 0.0 | 2.0 | 0.00 | 0.03 | 0.00 | 56 | 1007.8 |
| 20260504013507 | 44 | 157 | 0.0 | 2.0 | 0.00 | 0.03 | 0.00 | 55 | 1007.8 |
| 20260504013010 | 44 | 157 | 0.0 | 2.0 | 0.00 | 0.03 | 0.00 | 55 | 1007.8 |
| 20260504012508 | 44 | 157 | 0.0 | 3.0 | 0.00 | 0.03 | 0.00 | 55 | 1007.7 |
| 20260504012005 | 44 | 157 | 1.0 | 3.0 | 0.00 | 0.03 | 0.00 | 55 | 1007.7 |
| 20260504011505 | 44 | 160 | 0.0 | 2.0 | 0.00 | 0.03 | 0.00 | 54 | 1007.7 |
| 20260504011004 | 44 | 161 | 0.0 | 3.0 | 0.00 | 0.03 | 0.00 | 53 | 1007.7 |
| 20260504010505 | 44 | 161 | 1.0 | 3.0 | 0.00 | 0.03 | 0.00 | 52 | 1007.6 |
| 20260504010004 | 44 | 161 | 0.0 | 2.0 | 0.00 | 0.03 | 0.00 | 52 | 1007.6 |
| 20260504005503 | 44 | 161 | 0.0 | 2.0 | 0.00 | 0.04 | 0.00 | 53 | 1007.5 |
| 20260504005004 | 44 | 161 | 0.0 | 1.0 | 0.00 | 0.04 | 0.00 | 52 | 1007.5 |
| 20260504004506 | 44 | 161 | 0.0 | 1.0 | 0.00 | 0.04 | 0.00 | 53 | 1007.4 |
| 20260504004002 | 45 | 161 | 0.0 | 1.0 | 0.00 | 0.04 | 0.00 | 54 | 1007.4 |
| 20260504003502 | 45 | 161 | 0.0 | 2.0 | 0.00 | 0.04 | 0.00 | 53 | 1007.3 |
| 20260504003003 | 45 | 161 | 0.0 | 2.0 | 0.00 | 0.04 | 0.00 | 53 | 1007.3 |
| 20260504002502 | 46 | 161 | 0.0 | 2.0 | 0.00 | 0.04 | 0.00 | 52 | 1007.3 |
| 20260504002003 | 46 | 161 | 0.0 | 2.0 | 0.00 | 0.04 | 0.00 | 53 | 1007.3 |
| 20260504001503 | 46 | 161 | 0.0 | 2.0 | 0.00 | 0.04 | 0.00 | 51 | 1007.2 |
| 20260504001002 | 47 | 161 | 0.0 | 1.0 | 0.00 | 0.04 | 0.00 | 50 | 1007.3 |
| 20260504000502 | 47 | 161 | 0.0 | 1.0 | 0.00 | 0.04 | 0.00 | 50 | 1007.2 |
| 20260504000001 | 48 | 161 | 0.0 | 1.0 | 0.00 | 0.04 | 0.00 | 49 | 1007.2 |
| 20260503235503 | 48 | 161 | 0.0 | 2.0 | 0.00 | 0.04 | 0.00 | 50 | 1007.2 |
| 20260503235001 | 48 | 161 | 0.0 | 2.0 | 0.00 | 0.04 | 0.00 | 48 | 1007.2 |
| 20260503234502 | 49 | 161 | 1.0 | 2.0 | 0.00 | 0.04 | 0.00 | 47 | 1007.1 |
| 20260503234003 | 49 | 161 | 0.0 | 3.0 | 0.00 | 0.04 | 0.00 | 48 | 1007.2 |
| 20260503233502 | 50 | 161 | 0.0 | 3.0 | 0.00 | 0.04 | 0.00 | 45 | 1007.1 |
| 20260503233001 | 50 | 159 | 1.0 | 2.0 | 0.00 | 0.04 | 0.00 | 47 | 1007.0 |
| 20260503232502 | 50 | 159 | 1.0 | 2.0 | 0.00 | 0.04 | 0.00 | 45 | 1007.0 |
| 20260503232002 | 50 | 157 | 0.0 | 3.0 | 0.00 | 0.04 | 0.00 | 46 | 1007.0 |
| 20260503231502 | 50 | 158 | 0.0 | 3.0 | 0.00 | 0.04 | 0.00 | 46 | 1007.0 |
| 20260503231101 | 50 | 160 | 1.0 | 3.0 | 0.00 | 0.04 | 0.00 | 45 | 1007.0 |
| 20260503230600 | 50 | 189 | 1.0 | 3.0 | 0.00 | 0.04 | 0.00 | 47 | 1007.0 |
| 20260503230059 | 50 | 189 | 0.0 | 2.0 | 0.00 | 0.04 | 0.00 | 52 | 1007.1 |
| 20260503225603 | 50 | 189 | 1.0 | 2.0 | 0.00 | 0.06 | 0.00 | 48 | 1007.1 |
| 20260503225059 | 50 | 189 | 1.0 | 3.0 | 0.00 | 0.06 | 0.00 | 47 | 1007.1 |
| 20260503224601 | 50 | 189 | 1.0 | 3.0 | 0.00 | 0.06 | 0.00 | 46 | 1007.1 |
| 20260503224102 | 50 | 182 | 1.0 | 3.0 | 0.00 | 0.06 | 0.00 | 46 | 1007.1 |
| 20260503223559 | 50 | 182 | 1.0 | 3.0 | 0.00 | 0.06 | 0.00 | 45 | 1007.1 |
| 20260503223059 | 50 | 182 | 0.0 | 2.0 | 0.00 | 0.06 | 0.00 | 47 | 1007.1 |
| 20260503222559 | 50 | 182 | 1.0 | 2.0 | 0.00 | 0.06 | 0.00 | 47 | 1007.1 |
| 20260503222101 | 50 | 182 | 0.0 | 2.0 | 0.00 | 0.06 | 0.00 | 48 | 1007.1 |
| 20260503221605 | 50 | 182 | 1.0 | 3.0 | 0.00 | 0.06 | 0.00 | 46 | 1007.2 |
| 20260503221059 | 51 | 182 | 1.0 | 3.0 | 0.00 | 0.06 | 0.00 | 46 | 1007.2 |
| 20260503220558 | 51 | 182 | 1.0 | 2.0 | 0.00 | 0.06 | 0.00 | 47 | 1007.1 |
| 20260503220105 | 51 | 182 | 0.0 | 2.0 | 0.00 | 0.06 | 0.00 | 45 | 1007.1 |
| 20260503215557 | 51 | 182 | 0.0 | 2.0 | 0.00 | 0.06 | 0.00 | 44 | 1007.1 |
| 20260503215057 | 51 | 182 | 0.0 | 2.0 | 0.00 | 0.06 | 0.00 | 43 | 1007.1 |
| 20260503214558 | 51 | 182 | 1.0 | 2.0 | 0.00 | 0.06 | 0.00 | 46 | 1007.1 |
| 20260503214057 | 51 | 182 | 0.0 | 3.0 | 0.00 | 0.06 | 0.00 | 44 | 1007.1 |
| 20260503213557 | 51 | 182 | 2.0 | 3.0 | 0.00 | 0.06 | 0.00 | 47 | 1007.1 |
| 20260503213057 | 51 | 178 | 1.0 | 2.0 | 0.00 | 0.06 | 0.00 | 46 | 1007.1 |
| 20260503212557 | 51 | 178 | 0.0 | 2.0 | 0.00 | 0.06 | 0.00 | 46 | 1007.2 |
| 20260503212056 | 50 | 178 | 0.0 | 2.0 | 0.00 | 0.06 | 0.00 | 46 | 1007.1 |
| 20260503211557 | 50 | 178 | 0.0 | 3.0 | 0.00 | 0.06 | 0.00 | 45 | 1007.1 |
| 20260503211056 | 50 | 179 | 1.0 | 3.0 | 0.00 | 0.06 | 0.00 | 48 | 1007.1 |
| 20260503210555 | 50 | 179 | 1.0 | 2.0 | 0.00 | 0.06 | 0.00 | 44 | 1007.1 |
| 20260503210059 | 50 | 179 | 0.0 | 2.0 | 0.00 | 0.06 | 0.00 | 45 | 1007.0 |
| 20260503205559 | 50 | 179 | 1.0 | 3.0 | 0.00 | 0.06 | 0.00 | 46 | 1007.0 |
| 20260503205056 | 51 | 169 | 0.0 | 3.0 | 0.00 | 0.06 | 0.00 | 45 | 1007.1 |
| 20260503204607 | 51 | 169 | 1.0 | 3.0 | 0.00 | 0.06 | 0.00 | 45 | 1007.1 |
| 20260503204055 | 50 | 159 | 1.0 | 3.0 | 0.00 | 0.06 | 0.00 | 46 | 1007.0 |
| 20260503203555 | 50 | 159 | 0.0 | 3.0 | 0.00 | 0.06 | 0.00 | 46 | 1007.1 |
| 20260503203100 | 51 | 159 | 1.0 | 3.0 | 0.00 | 0.06 | 0.00 | 44 | 1007.1 |
| 20260503202553 | 50 | 153 | 1.0 | 3.0 | 0.00 | 0.06 | 0.00 | 47 | 1007.2 |
| 20260503202053 | 50 | 152 | 1.0 | 4.0 | 0.00 | 0.06 | 0.00 | 47 | 1007.2 |
| 20260503201554 | 50 | 101 | 1.0 | 4.0 | 0.00 | 0.06 | 0.00 | 45 | 1007.3 |
| 20260503201052 | 50 | 229 | 1.0 | 4.0 | 0.00 | 0.06 | 0.00 | 46 | 1007.3 |
| 20260503200551 | 50 | 229 | 2.0 | 4.0 | 0.00 | 0.06 | 0.00 | 47 | 1007.4 |
| 20260503200050 | 50 | 360 | 2.0 | 4.0 | 0.00 | 0.06 | 0.00 | 43 | 1007.5 |
| 20260503195549 | 51 | 309 | 1.0 | 4.0 | 0.00 | 0.06 | 0.00 | 47 | 1007.5 |
| 20260503195049 | 51 | 266 | 1.0 | 4.0 | 0.00 | 0.06 | 0.00 | 49 | 1007.5 |
| 20260503194606 | 51 | 267 | 1.0 | 5.0 | 0.00 | 0.06 | 0.00 | 49 | 1007.6 |
| 20260503194048 | 50 | 220 | 2.0 | 5.0 | 0.00 | 0.06 | 0.00 | 50 | 1007.6 |
| 20260503193547 | 50 | 236 | 1.0 | 5.0 | 0.00 | 0.06 | 0.00 | 52 | 1007.8 |
| 20260503193046 | 49 | 250 | 2.0 | 5.0 | 0.00 | 0.06 | 0.00 | 50 | 1007.8 |
| 20260503192545 | 49 | 251 | 1.0 | 5.0 | 0.00 | 0.06 | 0.00 | 51 | 1007.9 |
| 20260503192045 | 49 | 199 | 2.0 | 5.0 | 0.00 | 0.06 | 0.00 | 51 | 1007.9 |
| 20260503191544 | 49 | 225 | 2.0 | 5.0 | 0.00 | 0.06 | 0.00 | 52 | 1007.9 |
| 20260503191043 | 49 | 255 | 3.0 | 5.0 | 0.00 | 0.06 | 0.00 | 52 | 1008.0 |
| 20260503190542 | 49 | 238 | 2.0 | 6.0 | 0.00 | 0.06 | 0.00 | 51 | 1008.1 |
| 20260503190049 | 49 | 242 | 3.0 | 7.0 | 0.00 | 0.06 | 0.00 | 50 | 1008.1 |
| 20260503185542 | 49 | 238 | 3.0 | 7.0 | 0.00 | 0.06 | 0.00 | 48 | 1008.2 |
| 20260503185042 | 50 | 246 | 2.0 | 4.0 | 0.00 | 0.06 | 0.00 | 48 | 1008.2 |
| 20260503184542 | 50 | 318 | 1.0 | 4.0 | 0.00 | 0.06 | 0.00 | 49 | 1008.2 |
| 20260503184041 | 50 | 313 | 1.0 | 5.0 | 0.00 | 0.06 | 0.00 | 51 | 1008.2 |
| 20260503183541 | 50 | 238 | 2.0 | 5.0 | 0.00 | 0.06 | 0.00 | 49 | 1008.2 |
| 20260503183043 | 50 | 323 | 2.0 | 4.0 | 0.00 | 0.06 | 0.00 | 50 | 1008.3 |
| 20260503182539 | 50 | 287 | 1.0 | 4.0 | 0.00 | 0.06 | 0.00 | 51 | 1008.3 |
| 20260503182039 | 50 | 347 | 1.0 | 4.0 | 0.00 | 0.06 | 0.00 | 50 | 1008.4 |
| 20260503181538 | 50 | 314 | 2.0 | 6.0 | 0.00 | 0.06 | 0.00 | 52 | 1008.4 |
| 20260503181038 | 49 | 334 | 2.0 | 6.0 | 0.00 | 0.06 | 0.00 | 51 | 1008.4 |
| 20260503180537 | 49 | 300 | 1.0 | 3.0 | 0.00 | 0.06 | 0.00 | 51 | 1008.4 |
| 20260503180037 | 49 | 288 | 1.0 | 2.0 | 0.00 | 0.06 | 0.00 | 51 | 1008.4 |
| 20260503175536 | 49 | 288 | 0.0 | 5.0 | 0.00 | 0.06 | 0.00 | 50 | 1008.5 |
| 20260503175035 | 50 | 313 | 2.0 | 5.0 | 0.00 | 0.06 | 0.00 | 52 | 1008.5 |
| 20260503174535 | 50 | 259 | 2.0 | 5.0 | 0.00 | 0.06 | 0.00 | 52 | 1008.5 |
| 20260503174037 | 49 | 327 | 2.0 | 4.0 | 0.00 | 0.06 | 0.00 | 52 | 1008.6 |
| 20260503173534 | 49 | 248 | 2.0 | 4.0 | 0.00 | 0.06 | 0.00 | 51 | 1008.5 |
| 20260503173056 | 49 | 254 | 2.0 | 4.0 | 0.00 | 0.06 | 0.00 | 51 | 1008.6 |
| 20260503172536 | 49 | 74 | 0.0 | 4.0 | 0.00 | 0.06 | 0.00 | 52 | 1008.6 |
| 20260503172033 | 49 | 77 | 2.0 | 4.0 | 0.00 | 0.06 | 0.00 | 52 | 1008.7 |
| 20260503171535 | 49 | 237 | 2.0 | 4.0 | 0.00 | 0.06 | 0.00 | 56 | 1008.7 |
| 20260503171032 | 49 | 241 | 2.0 | 5.0 | 0.00 | 0.06 | 0.00 | 54 | 1008.7 |
| 20260503170532 | 48 | 218 | 1.0 | 7.0 | 0.00 | 0.06 | 0.00 | 54 | 1008.8 |
| 20260503150525 | 51 | 296 | 2.0 | 6.0 | 0.00 | 0.06 | 0.00 | 54 | 1009.7 |
| 20260503131059 | 47 | 244 | 2.0 | 4.0 | 0.00 | 0.06 | 0.00 | 75 | 1010.6 |
| 20260503130558 | 46 | 237 | 2.0 | 4.0 | 0.00 | 0.06 | 0.00 | 75 | 1010.6 |
| 20260503130108 | 46 | 263 | 1.0 | 5.0 | 0.00 | 0.06 | 0.00 | 74 | 1010.6 |